Aviation Digital Data Service (ADDS)

Output produced by METARs form (1824 UTC 22 November 2017)
found at http://www.aviationweather.gov/adds/metars/
 
TAF EGYP 221629Z 2218/2312 22015KT 9999 SCT030 
     BECMG 2222/2224 31015KT 
     PROB30 
     TEMPO 2222/2224 7000 -RA SCT020 
     BECMG 2301/2304 -RA BKN020 
     TEMPO 2302/2311 6000 -RADZ BKN012 
     PROB30 
     TEMPO 2302/2311 4000 RADZ SCT005 
     BECMG 2306/2309 21020KT 
     TEMPO 2311/2312 21025G35KT